Time;durP1;ratioP1;P1;durP2;ratioP2;P2;SDS_P1;SDS_P2;PMS_P1;PMS_P2;Temp;Humidity;BMP_temperature;BMP_pressure;BME280_temperature;BME280_humidity;BME280_pressure;Samples;Min_cycle;Max_cycle;Signal;HPM_P1;HPM_P2
2022/06/11 00:01:12;;;;;;;16.88;5.00;;;18.60;94.40;;;;;;4995072;28;20053;-82
2022/06/11 00:03:38;;;;;;;9.37;5.07;;;18.60;94.30;;;;;;4994340;28;20041;-85
2022/06/11 00:06:04;;;;;;;9.52;4.30;;;18.50;94.30;;;;;;4978540;28;20022;-86
2022/06/11 00:08:30;;;;;;;9.15;4.32;;;18.40;94.30;;;;;;4962649;28;20018;-85
2022/06/11 00:10:56;;;;;;;8.13;4.00;;;18.40;94.30;;;;;;4994733;28;20463;-85
2022/06/11 00:13:22;;;;;;;9.40;3.95;;;18.40;94.40;;;;;;4978672;28;20035;-86
2022/06/11 00:15:53;;;;;;;8.90;4.07;;;18.30;94.30;;;;;;4977916;28;20133;-87
2022/06/11 00:18:20;;;;;;;8.05;3.88;;;18.30;94.30;;;;;;4994188;28;20453;-86
2022/06/11 00:20:46;;;;;;;9.65;4.07;;;18.30;94.40;;;;;;4977977;28;20060;-87
2022/06/11 00:23:12;;;;;;;7.80;4.05;;;18.30;94.40;;;;;;4977782;28;20057;-87
2022/06/11 00:25:38;;;;;;;8.60;3.55;;;18.20;94.40;;;;;;4994019;28;20031;-86
2022/06/11 00:28:06;;;;;;;8.82;4.82;;;18.20;94.50;;;;;;4993779;28;20026;-87
2022/06/11 00:30:32;;;;;;;8.32;4.38;;;18.10;94.50;;;;;;4994068;28;20084;-87
2022/06/11 00:32:58;;;;;;;11.68;4.70;;;18.10;94.60;;;;;;4977675;28;20026;-87
2022/06/11 00:35:25;;;;;;;9.00;4.93;;;18.00;94.80;;;;;;4977385;28;20030;-85
2022/06/11 00:37:51;;;;;;;7.80;4.75;;;18.00;94.80;;;;;;4977035;28;20026;-87
2022/06/11 00:40:21;;;;;;;9.20;5.32;;;18.00;94.90;;;;;;4993484;28;20029;-85
2022/06/11 00:42:47;;;;;;;11.68;5.80;;;18.00;95.00;;;;;;4993648;28;20118;-85
2022/06/11 00:45:15;;;;;;;9.40;5.55;;;18.00;95.10;;;;;;4960979;28;20443;-79
2022/06/11 00:47:42;;;;;;;8.35;4.93;;;17.90;95.10;;;;;;4993461;28;20077;-78
2022/06/11 00:50:42;;;;;;;8.07;4.53;;;17.80;95.20;;;;;;4993100;28;20031;-78
2022/06/11 00:53:35;;;;;;;12.60;5.35;;;17.80;95.30;;;;;;4992584;28;20487;-79
2022/06/11 00:56:03;;;;;;;10.25;5.63;;;17.70;95.40;;;;;;5004937;28;20119;-78
2022/06/11 00:58:35;;;;;;;10.82;5.57;;;17.70;95.40;;;;;;5012681;28;20119;-79
2022/06/11 01:01:01;;;;;;;8.00;4.70;;;17.70;95.50;;;;;;5013616;28;20022;-78
2022/06/11 01:03:37;;;;;;;6.57;3.97;;;17.60;95.50;;;;;;5012693;28;20364;-77
2022/06/11 01:06:45;;;;;;;6.63;4.53;;;17.60;95.50;;;;;;5012431;28;20022;-79
2022/06/11 01:09:38;;;;;;;6.60;3.65;;;17.50;95.60;;;;;;5028855;28;20621;-80
2022/06/11 01:12:16;;;;;;;7.35;4.18;;;17.50;95.60;;;;;;5012075;28;20061;-79
2022/06/11 01:15:05;;;;;;;9.18;4.22;;;17.50;95.60;;;;;;5012347;28;20379;-79
2022/06/11 01:17:46;;;;;;;9.25;4.22;;;17.40;95.60;;;;;;5028549;28;20453;-80
2022/06/11 01:20:39;;;;;;;8.80;4.60;;;17.40;95.60;;;;;;5013608;28;20109;-79
2022/06/11 01:23:23;;;;;;;7.75;3.78;;;17.40;95.60;;;;;;5012146;28;20030;-79
2022/06/11 01:26:10;;;;;;;6.28;3.53;;;17.30;95.70;;;;;;5012443;28;20124;-78
2022/06/11 01:29:01;;;;;;;8.23;4.15;;;17.30;95.70;;;;;;5011934;28;20433;-79
2022/06/11 01:31:30;;;;;;;8.68;4.22;;;17.20;95.80;;;;;;5012125;28;20053;-79
2022/06/11 01:34:04;;;;;;;8.57;4.05;;;17.20;95.80;;;;;;5012299;28;20034;-79
2022/06/11 01:36:36;;;;;;;5.97;3.75;;;17.20;96.00;;;;;;5028347;28;20061;-79
2022/06/11 01:39:02;;;;;;;7.90;4.75;;;17.10;96.10;;;;;;5012146;28;20540;-78
2022/06/11 01:41:58;;;;;;;9.15;4.63;;;17.10;96.20;;;;;;5012040;28;20050;-79
2022/06/11 01:44:31;;;;;;;7.38;4.68;;;17.10;96.30;;;;;;5008331;28;20034;-80
2022/06/11 01:46:58;;;;;;;7.10;4.68;;;17.00;96.40;;;;;;5012633;28;20025;-79
2022/06/11 01:49:24;;;;;;;6.90;4.35;;;17.00;96.50;;;;;;5015502;28;20021;-79
2022/06/11 01:52:04;;;;;;;9.95;4.50;;;17.00;96.50;;;;;;5015890;28;20029;-79
2022/06/11 01:54:39;;;;;;;7.30;4.38;;;17.00;96.60;;;;;;5015703;28;20461;-78
2022/06/11 01:57:08;;;;;;;7.68;4.18;;;16.90;96.70;;;;;;5015877;28;20029;-78
2022/06/11 01:59:47;;;;;;;8.98;4.38;;;16.90;96.70;;;;;;5015669;28;20121;-80
2022/06/11 02:02:27;;;;;;;8.70;4.85;;;16.90;96.80;;;;;;5015673;28;20488;-79
2022/06/11 02:05:08;;;;;;;11.63;4.70;;;16.90;96.90;;;;;;5015479;28;20036;-79
2022/06/11 02:07:45;;;;;;;8.90;4.28;;;16.80;97.00;;;;;;5015556;28;20092;-79
2022/06/11 02:10:37;;;;;;;8.60;4.32;;;16.80;97.00;;;;;;5015828;28;20025;-79
2022/06/11 02:13:17;;;;;;;8.30;4.68;;;16.80;97.10;;;;;;5016654;28;20073;-79
2022/06/11 02:15:50;;;;;;;8.50;5.40;;;16.80;97.20;;;;;;5014083;28;20067;-78
2022/06/11 02:18:18;;;;;;;8.27;5.55;;;16.80;97.20;;;;;;5006765;28;20041;-78
2022/06/11 02:21:00;;;;;;;15.45;4.57;;;16.80;97.30;;;;;;5016272;28;20028;-78
2022/06/11 02:23:37;;;;;;;7.35;4.53;;;16.70;97.30;;;;;;5014967;28;20029;-79
2022/06/11 02:26:09;;;;;;;6.35;4.28;;;16.70;97.40;;;;;;5015193;28;20549;-79
2022/06/11 02:28:39;;;;;;;8.95;4.85;;;16.70;97.40;;;;;;5015044;28;20014;-78
2022/06/11 02:31:08;;;;;;;7.50;4.20;;;16.60;97.40;;;;;;5015091;28;20124;-78
2022/06/11 02:33:35;;;;;;;6.30;3.88;;;16.60;97.50;;;;;;5014904;28;20363;-79
2022/06/11 02:36:06;;;;;;;7.85;4.38;;;16.60;97.50;;;;;;5014975;28;20116;-79
2022/06/11 02:38:32;;;;;;;8.20;4.13;;;16.60;97.60;;;;;;5014888;28;20104;-79
2022/06/11 02:41:06;;;;;;;7.70;4.22;;;16.60;97.70;;;;;;4998645;28;20512;-79
2022/06/11 02:43:31;;;;;;;;;;;16.50;97.60;;;;;;5015278;28;20022;-79
2022/06/11 02:45:57;;;;;;;6.60;4.00;;;16.50;97.60;;;;;;5016015;28;19905;-79
2022/06/11 02:48:23;;;;;;;7.18;3.80;;;16.60;97.60;;;;;;5014731;28;20022;-79
2022/06/11 02:50:49;;;;;;;11.05;4.38;;;16.50;97.60;;;;;;4998471;28;20573;-79
2022/06/11 02:53:16;;;;;;;7.43;4.28;;;16.50;97.70;;;;;;4998667;28;20375;-79
2022/06/11 02:55:43;;;;;;;10.98;4.50;;;16.50;97.70;;;;;;5031202;28;20382;-79
2022/06/11 02:58:11;;;;;;;14.00;5.38;;;16.50;97.70;;;;;;5014735;28;20478;-78
2022/06/11 03:00:41;;;;;;;5.50;4.03;;;16.40;97.80;;;;;;5009285;28;20037;-78
2022/06/11 03:03:07;;;;;;;9.02;4.88;;;16.40;97.90;;;;;;5000207;28;20026;-79
2022/06/11 03:05:34;;;;;;;8.38;4.75;;;16.30;97.90;;;;;;4994890;28;20023;-79
2022/06/11 03:08:01;;;;;;;8.38;4.72;;;16.30;98.10;;;;;;4995147;28;20033;-80
2022/06/11 03:10:29;;;;;;;11.40;4.97;;;16.30;98.10;;;;;;4994905;28;20478;-80
2022/06/11 03:12:56;;;;;;;12.48;5.95;;;16.30;98.20;;;;;;4994860;28;20029;-79
2022/06/11 03:15:24;;;;;;;7.30;4.75;;;16.30;98.20;;;;;;4996144;28;20390;-85
2022/06/11 03:17:51;;;;;;;9.90;5.57;;;16.30;98.40;;;;;;4995515;28;20046;-87
2022/06/11 03:20:19;;;;;;;9.85;5.57;;;16.20;98.40;;;;;;4995071;28;20038;-83
2022/06/11 03:22:45;;;;;;;8.65;4.82;;;16.20;98.50;;;;;;4995745;28;20026;-86
2022/06/11 03:25:12;;;;;;;11.15;5.25;;;16.10;98.60;;;;;;4963596;28;20077;-86
2022/06/11 03:27:39;;;;;;;6.95;4.55;;;16.10;98.70;;;;;;4995717;28;20486;-86
2022/06/11 03:30:09;;;;;;;10.02;5.72;;;16.10;98.80;;;;;;4995220;28;20019;-85
2022/06/11 03:32:35;;;;;;;11.30;4.90;;;16.10;98.70;;;;;;4995324;28;20363;-83
2022/06/11 03:35:01;;;;;;;9.25;4.80;;;16.10;98.80;;;;;;4995105;28;20101;-87
2022/06/11 03:37:27;;;;;;;7.45;4.45;;;16.10;98.90;;;;;;4995521;28;20022;-85
2022/06/11 03:39:52;;;;;;;9.23;4.93;;;16.10;98.90;;;;;;4994792;28;20015;-84
2022/06/11 03:42:18;;;;;;;8.02;5.15;;;16.10;99.00;;;;;;4978524;28;20027;-83
2022/06/11 03:44:44;;;;;;;12.45;4.65;;;16.10;99.00;;;;;;4994701;28;20489;-86
2022/06/11 03:47:10;;;;;;;11.50;4.80;;;16.10;99.00;;;;;;4994816;28;20022;-85
2022/06/11 03:49:36;;;;;;;9.48;4.10;;;16.10;99.10;;;;;;4994514;28;20494;-84
2022/06/11 03:52:04;;;;;;;6.65;3.40;;;16.10;99.00;;;;;;4996195;28;20018;-86
2022/06/11 03:54:29;;;;;;;8.40;3.65;;;16.00;99.00;;;;;;4995855;28;20040;-83
2022/06/11 03:56:55;;;;;;;7.95;3.70;;;16.00;99.00;;;;;;4994602;28;20030;-86
2022/06/11 03:59:22;;;;;;;8.57;4.47;;;16.00;99.00;;;;;;4994673;28;20133;-84
2022/06/11 04:01:48;;;;;;;8.60;3.38;;;16.00;99.00;;;;;;4978483;28;20041;-85
2022/06/11 04:04:15;;;;;;;9.40;4.07;;;16.00;99.00;;;;;;4978747;28;20030;-85
2022/06/11 04:06:51;;;;;;;10.70;3.90;;;16.00;99.00;;;;;;4994912;28;20047;-87
2022/06/11 04:09:25;;;;;;;9.20;3.70;;;16.00;99.00;;;;;;4994289;28;20117;-84
2022/06/11 04:11:51;;;;;;;14.07;4.38;;;16.00;98.90;;;;;;4994851;28;20467;-85
2022/06/11 04:14:16;;;;;;;9.30;3.20;;;16.00;98.90;;;;;;4993893;28;20038;-83
2022/06/11 04:16:46;;;;;;;7.82;2.83;;;16.00;98.80;;;;;;4995139;28;20507;-82
2022/06/11 04:19:19;;;;;;;7.70;3.20;;;16.00;98.70;;;;;;5006168;28;20502;-85
2022/06/11 04:21:46;;;;;;;9.30;3.05;;;16.00;98.60;;;;;;5006100;28;20034;-83
2022/06/11 04:24:12;;;;;;;8.30;2.30;;;16.00;98.50;;;;;;4993235;28;20390;-85
2022/06/11 04:26:42;;;;;;;7.55;2.60;;;16.00;98.50;;;;;;4999565;28;20026;-83
2022/06/11 04:29:10;;;;;;;8.88;2.80;;;16.00;98.30;;;;;;5000744;28;20598;-84
2022/06/11 04:31:36;;;;;;;8.13;2.50;;;16.00;98.30;;;;;;5009385;28;20022;-83
2022/06/11 04:34:02;;;;;;;10.20;3.22;;;16.00;98.20;;;;;;4993616;28;20181;-82
2022/06/11 04:36:30;;;;;;;7.93;3.15;;;16.00;98.20;;;;;;4961268;28;20041;-83
2022/06/11 04:38:56;;;;;;;7.53;2.38;;;16.10;98.20;;;;;;4994820;28;20072;-80
2022/06/11 04:41:22;;;;;;;8.13;2.47;;;16.10;98.10;;;;;;4961417;28;20042;-80
2022/06/11 04:43:48;;;;;;;9.68;2.35;;;16.10;98.00;;;;;;5009660;28;20030;-84
2022/06/11 04:46:15;;;;;;;8.55;2.78;;;16.10;97.90;;;;;;5017017;28;20033;-84
2022/06/11 04:48:41;;;;;;;9.13;2.40;;;16.10;97.90;;;;;;5014988;28;20022;-82
2022/06/11 04:51:08;;;;;;;7.35;1.85;;;16.10;98.10;;;;;;5026547;28;20022;-84
2022/06/11 04:53:34;;;;;;;8.38;2.33;;;16.10;97.80;;;;;;4996806;28;20029;-83
2022/06/11 04:55:59;;;;;;;9.05;2.92;;;16.10;97.70;;;;;;5010961;28;20121;-81
2022/06/11 04:58:25;;;;;;;8.40;2.30;;;16.10;97.60;;;;;;5013758;28;20053;-82
2022/06/11 05:00:51;;;;;;;11.98;2.45;;;16.10;97.50;;;;;;5013162;28;20101;-81
2022/06/11 05:03:17;;;;;;;8.68;2.15;;;16.10;97.30;;;;;;5014488;28;20041;-86
2022/06/11 05:05:43;;;;;;;10.65;2.50;;;16.20;97.40;;;;;;5013564;28;20086;-82
2022/06/11 05:08:11;;;;;;;8.93;2.28;;;16.20;97.20;;;;;;5012913;28;20110;-83
2022/06/11 05:10:37;;;;;;;9.23;1.88;;;16.20;97.00;;;;;;5013599;28;20026;-86
2022/06/11 05:13:05;;;;;;;9.20;2.13;;;16.20;97.00;;;;;;4993161;28;20129;-84
2022/06/11 05:15:31;;;;;;;10.18;1.70;;;16.20;97.00;;;;;;4979954;28;20030;-81
2022/06/11 05:17:56;;;;;;;11.02;2.28;;;16.20;96.80;;;;;;4980757;28;20050;-83
2022/06/11 05:20:23;;;;;;;14.05;2.45;;;16.20;96.70;;;;;;4977066;28;20385;-84
2022/06/11 05:22:49;;;;;;;10.25;1.80;;;16.30;96.70;;;;;;4977334;28;20069;-84
2022/06/11 05:25:17;;;;;;;6.82;2.00;;;16.30;96.60;;;;;;4997330;28;20110;-83
2022/06/11 05:27:43;;;;;;;12.88;2.65;;;16.30;96.40;;;;;;4997123;28;20033;-86
2022/06/11 05:30:20;;;;;;;11.90;2.03;;;16.30;96.30;;;;;;4981029;28;20459;-85
2022/06/11 05:32:46;;;;;;;10.40;2.08;;;16.40;96.30;;;;;;4998152;28;20563;-83
2022/06/11 05:35:16;;;;;;;9.07;2.15;;;16.40;96.20;;;;;;4996912;28;20058;-84
2022/06/11 05:37:42;;;;;;;8.77;1.92;;;16.40;96.00;;;;;;4996691;28;20088;-84
2022/06/11 05:40:09;;;;;;;7.57;2.00;;;16.50;96.00;;;;;;4997682;28;20030;-87
2022/06/11 05:42:35;;;;;;;15.60;2.92;;;16.50;95.90;;;;;;4996691;28;20050;-84
2022/06/11 05:45:01;;;;;;;12.73;2.80;;;16.50;95.90;;;;;;4980560;28;20027;-81
2022/06/11 05:47:29;;;;;;;13.80;2.55;;;16.50;95.80;;;;;;4964349;28;20030;-86
2022/06/11 05:49:58;;;;;;;14.88;2.83;;;16.50;95.70;;;;;;4980578;28;20541;-81
2022/06/11 05:52:29;;;;;;;11.75;2.05;;;16.50;95.70;;;;;;4997620;28;20028;-81
2022/06/11 05:54:55;;;;;;;15.32;3.00;;;16.60;95.70;;;;;;4996222;28;20030;-85
2022/06/11 05:57:25;;;;;;;11.98;2.35;;;16.60;95.60;;;;;;4996155;28;20402;-82
2022/06/11 06:00:07;;;;;;;13.25;2.17;;;16.60;95.60;;;;;;4996194;28;20026;-82
2022/06/11 06:02:33;;;;;;;15.48;2.97;;;16.60;95.60;;;;;;4996671;28;20081;-85
2022/06/11 06:04:58;;;;;;;8.50;2.28;;;16.70;95.90;;;;;;4980107;28;20475;-85
2022/06/11 06:07:24;;;;;;;15.93;2.60;;;16.70;95.60;;;;;;4996277;28;20034;-83
2022/06/11 06:09:50;;;;;;;12.05;2.40;;;16.70;95.50;;;;;;4980218;28;20137;-82
2022/06/11 06:12:16;;;;;;;16.30;2.85;;;16.70;95.30;;;;;;4996230;28;20121;-85
2022/06/11 06:14:42;;;;;;;13.15;2.42;;;16.70;95.40;;;;;;4996319;28;20113;-83
2022/06/11 06:17:08;;;;;;;15.43;2.78;;;16.80;95.30;;;;;;4985158;28;20137;-83
2022/06/11 06:19:34;;;;;;;16.23;2.63;;;16.80;95.30;;;;;;4990210;28;20568;-85
2022/06/11 06:22:04;;;;;;;18.75;2.67;;;16.80;95.30;;;;;;4999713;28;20026;-86
2022/06/11 06:24:33;;;;;;;17.35;4.05;;;16.80;95.10;;;;;;4999996;28;20026;-85
2022/06/11 06:26:59;;;;;;;13.65;3.00;;;16.90;95.10;;;;;;5015653;28;20386;-84
2022/06/11 06:29:25;;;;;;;13.70;2.78;;;16.80;95.00;;;;;;4989733;28;20088;-85
2022/06/11 06:31:51;;;;;;;16.38;2.88;;;16.90;95.10;;;;;;4996384;28;20030;-86
2022/06/11 06:34:17;;;;;;;16.55;3.25;;;16.90;95.00;;;;;;4979776;28;20121;-83
2022/06/11 06:36:43;;;;;;;17.13;3.65;;;16.90;94.90;;;;;;4997161;28;20022;-86
2022/06/11 06:39:10;;;;;;;17.92;2.42;;;17.00;94.80;;;;;;4979638;28;20574;-84
2022/06/11 06:41:35;;;;;;;15.80;3.15;;;17.00;94.80;;;;;;4964110;28;20030;-87
2022/06/11 06:44:01;;;;;;;12.30;1.85;;;17.00;94.80;;;;;;4996354;28;20036;-85
2022/06/11 06:46:27;;;;;;;16.45;2.75;;;17.10;94.80;;;;;;4992982;28;20022;-83
2022/06/11 06:48:52;;;;;;;21.70;3.00;;;17.10;94.70;;;;;;4999205;28;20022;-83
2022/06/11 06:51:18;;;;;;;22.00;2.85;;;17.10;94.50;;;;;;5015277;28;20490;-85
2022/06/11 06:53:44;;;;;;;13.00;2.35;;;17.10;94.40;;;;;;4995513;28;20030;-84
2022/06/11 06:56:11;;;;;;;17.42;3.65;;;17.20;94.30;;;;;;4996701;28;20029;-82
2022/06/11 06:58:36;;;;;;;13.73;2.20;;;17.20;94.20;;;;;;4995537;28;20512;-86
2022/06/11 07:01:03;;;;;;;17.13;2.67;;;17.20;94.30;;;;;;4996612;28;20058;-84
2022/06/11 07:03:29;;;;;;;17.10;3.85;;;17.30;94.30;;;;;;4996676;28;20058;-88
2022/06/11 07:05:55;;;;;;;17.52;3.17;;;17.30;94.20;;;;;;4979219;28;20487;-83
2022/06/11 07:08:21;;;;;;;18.25;3.13;;;17.40;94.30;;;;;;4995782;28;20029;-82
2022/06/11 07:10:49;;;;;;;13.80;2.85;;;17.40;94.00;;;;;;4995209;28;20513;-85
2022/06/11 07:13:16;;;;;;;13.35;2.25;;;17.50;93.80;;;;;;4995164;28;20034;-83
2022/06/11 07:15:43;;;;;;;10.82;2.50;;;17.50;93.50;;;;;;4997374;28;20045;-84
2022/06/11 07:18:15;;;;;;;18.80;3.03;;;17.60;93.20;;;;;;5012946;28;20050;-86
2022/06/11 07:20:42;;;;;;;13.00;2.10;;;17.60;93.10;;;;;;5014321;28;20367;-84
2022/06/11 07:23:17;;;;;;;19.13;3.03;;;17.70;93.00;;;;;;5010452;28;20041;-84
2022/06/11 07:25:44;;;;;;;20.52;3.13;;;17.70;92.90;;;;;;4994870;28;20479;-83
2022/06/11 07:28:18;;;;;;;11.02;2.10;;;17.80;92.80;;;;;;4994724;28;20467;-85
2022/06/11 07:30:45;;;;;;;14.45;2.97;;;17.80;92.70;;;;;;4996165;28;20036;-81
2022/06/11 07:33:17;;;;;;;11.68;2.17;;;17.90;92.60;;;;;;4996181;28;20442;-84
2022/06/11 07:35:43;;;;;;;12.73;2.17;;;17.90;92.50;;;;;;5012296;28;20028;-83
2022/06/11 07:38:12;;;;;;;15.13;2.60;;;18.00;92.30;;;;;;5014428;28;20452;-86
2022/06/11 07:40:39;;;;;;;12.82;2.67;;;18.00;92.00;;;;;;5012787;28;20025;-85
2022/06/11 07:43:06;;;;;;;9.73;1.95;;;18.10;91.90;;;;;;4978311;28;20038;-82
2022/06/11 07:45:33;;;;;;;18.90;2.88;;;18.00;91.60;;;;;;4977825;28;20023;-83
2022/06/11 07:47:59;;;;;;;12.52;2.45;;;18.10;91.70;;;;;;4978174;28;20490;-85
2022/06/11 07:50:29;;;;;;;13.93;2.90;;;18.10;91.50;;;;;;4978371;28;20037;-82
2022/06/11 07:52:55;;;;;;;16.55;2.38;;;18.10;91.20;;;;;;4994973;28;20105;-82
2022/06/11 07:55:22;;;;;;;8.25;1.95;;;18.20;91.20;;;;;;4977832;28;20368;-84
2022/06/11 07:57:48;;;;;;;15.23;2.50;;;18.20;90.90;;;;;;4994368;28;20026;-85
2022/06/11 08:00:19;;;;;;;13.38;2.03;;;18.20;90.90;;;;;;4995243;28;20023;-85
2022/06/11 08:02:45;;;;;;;13.23;3.00;;;18.20;90.40;;;;;;4994665;28;20015;-81
2022/06/11 08:05:11;;;;;;;13.95;2.03;;;18.30;90.20;;;;;;4994532;28;20391;-85
2022/06/11 08:07:36;;;;;;;14.30;2.85;;;18.30;89.90;;;;;;4996182;28;20041;-84
2022/06/11 08:10:02;;;;;;;16.67;2.20;;;18.30;89.80;;;;;;4994097;28;20034;-83
2022/06/11 08:12:28;;;;;;;16.02;3.53;;;18.40;89.10;;;;;;4994161;28;20037;-84
2022/06/11 08:14:56;;;;;;;14.85;2.95;;;18.50;88.20;;;;;;4994343;28;20068;-86
2022/06/11 08:17:24;;;;;;;16.92;2.30;;;18.50;87.30;;;;;;4977884;28;20141;-85
2022/06/11 08:19:50;;;;;;;9.70;2.33;;;18.50;87.70;;;;;;4993890;28;20061;-83
2022/06/11 08:22:16;;;;;;;11.57;1.95;;;18.50;86.50;;;;;;4994801;28;20026;-82
2022/06/11 08:24:41;;;;;;;11.15;1.58;;;18.60;86.50;;;;;;4996591;28;20064;-82
2022/06/11 08:27:07;;;;;;;15.52;3.63;;;18.60;85.60;;;;;;5013058;28;20099;-84
2022/06/11 08:29:33;;;;;;;10.70;2.17;;;18.70;85.50;;;;;;5012848;28;20075;-83
2022/06/11 08:31:59;;;;;;;14.23;2.17;;;18.70;85.10;;;;;;4980349;28;20033;-82
2022/06/11 08:34:24;;;;;;;11.60;1.92;;;18.80;85.10;;;;;;5013228;28;20032;-79
2022/06/11 08:36:50;;;;;;;10.80;2.15;;;18.90;83.50;;;;;;5014112;28;20045;-82
2022/06/11 08:39:15;;;;;;;14.10;2.10;;;18.90;82.80;;;;;;5013013;28;20026;-83
2022/06/11 08:41:41;;;;;;;14.50;1.98;;;19.00;82.00;;;;;;5013165;28;20099;-84
2022/06/11 08:44:11;;;;;;;11.27;1.48;;;19.00;82.30;;;;;;5012995;28;20030;-83
2022/06/11 08:46:40;;;;;;;12.82;2.08;;;19.00;82.10;;;;;;5029202;28;20030;-81
2022/06/11 08:49:11;;;;;;;15.95;2.47;;;19.10;81.80;;;;;;5012715;28;20018;-82
2022/06/11 08:51:51;;;;;;;13.05;2.25;;;19.10;81.80;;;;;;5029254;28;20486;-85
2022/06/11 08:54:18;;;;;;;12.75;2.30;;;19.20;81.10;;;;;;5013971;28;20018;-81
2022/06/11 08:57:14;;;;;;;13.90;2.40;;;19.30;80.40;;;;;;5012280;28;20022;-89
2022/06/11 08:59:56;;;;;;;12.90;2.55;;;19.30;79.60;;;;;;5029133;28;20018;-87
2022/06/11 09:02:37;;;;;;;11.13;2.10;;;19.40;78.60;;;;;;5012499;28;20060;-84
2022/06/11 09:05:15;;;;;;;11.50;2.70;;;19.50;78.00;;;;;;5013900;28;20130;-89
2022/06/11 09:08:08;;;;;;;11.23;1.85;;;19.60;77.60;;;;;;5012625;28;20028;-82
2022/06/11 09:10:52;;;;;;;9.90;1.35;;;19.70;77.90;;;;;;5012398;28;20029;-85
2022/06/11 09:13:35;;;;;;;14.10;2.22;;;19.80;78.20;;;;;;5012433;28;20041;-84
2022/06/11 09:16:16;;;;;;;11.80;2.63;;;20.00;78.00;;;;;;5012469;28;20389;-84
2022/06/11 09:18:50;;;;;;;9.98;2.28;;;20.10;77.50;;;;;;5012519;28;20026;-82
2022/06/11 09:21:26;;;;;;;12.63;1.70;;;20.30;77.50;;;;;;5013484;28;20025;-88
2022/06/11 09:24:05;;;;;;;13.68;2.35;;;20.40;76.40;;;;;;5013573;28;20030;-86
2022/06/11 09:26:37;;;;;;;10.55;2.00;;;20.60;74.60;;;;;;5013419;28;20029;-85
2022/06/11 09:29:20;;;;;;;10.85;2.03;;;20.80;74.20;;;;;;5012518;28;20033;-83
2022/06/11 09:31:58;;;;;;;8.27;1.55;;;20.90;73.90;;;;;;5013634;28;20025;-84
2022/06/11 09:34:29;;;;;;;13.48;2.42;;;21.00;73.70;;;;;;5012358;28;20026;-85
2022/06/11 09:37:16;;;;;;;13.77;1.80;;;21.00;72.90;;;;;;5012205;28;20117;-84
2022/06/11 09:39:45;;;;;;;10.95;1.73;;;21.10;73.00;;;;;;5012428;28;20037;-84
2022/06/11 09:42:31;;;;;;;12.48;2.05;;;21.20;73.00;;;;;;5012115;28;20497;-85
2022/06/11 09:45:09;;;;;;;8.23;1.52;;;21.30;72.40;;;;;;5012041;28;20032;-86
2022/06/11 09:48:24;;;;;;;10.32;1.60;;;21.30;72.10;;;;;;5011882;28;20026;-83
2022/06/11 09:51:03;;;;;;;11.18;2.53;;;21.40;71.80;;;;;;4975242;28;20031;-84
2022/06/11 09:53:57;;;;;;;15.15;2.85;;;21.40;71.60;;;;;;5007241;28;20085;-82
2022/06/11 09:57:09;;;;;;;13.88;2.55;;;21.50;71.00;;;;;;5012382;28;20085;-84
2022/06/11 10:00:10;;;;;;;9.45;1.73;;;21.60;70.70;;;;;;4993800;28;20077;-85
2022/06/11 10:03:02;;;;;;;8.38;1.95;;;21.60;70.90;;;;;;5002015;28;20029;-86
2022/06/11 10:05:52;;;;;;;13.32;2.78;;;21.80;70.90;;;;;;5011815;28;20049;-82
2022/06/11 10:08:30;;;;;;;11.13;1.85;;;21.80;70.40;;;;;;5020744;28;20021;-84
2022/06/11 10:10:57;;;;;;;11.68;2.38;;;21.90;70.40;;;;;;5046968;28;20032;-87
2022/06/11 10:13:34;;;;;;;15.18;2.67;;;22.10;69.80;;;;;;5034754;28;20025;-85
2022/06/11 10:16:23;;;;;;;10.27;2.10;;;22.20;69.70;;;;;;5012614;28;20030;-86
2022/06/11 10:18:51;;;;;;;11.05;2.55;;;22.30;69.90;;;;;;5023039;28;20026;-84
2022/06/11 10:21:20;;;;;;;13.38;2.17;;;22.30;67.40;;;;;;5011007;28;20022;-84
2022/06/11 10:23:58;;;;;;;11.77;1.98;;;22.30;67.00;;;;;;4986879;28;20034;-84
2022/06/11 10:26:51;;;;;;;11.00;1.98;;;22.30;66.60;;;;;;5001731;28;20091;-84
2022/06/11 10:29:26;;;;;;;12.50;2.60;;;22.40;66.90;;;;;;5004131;28;20045;-83
2022/06/11 10:32:06;;;;;;;10.25;2.05;;;22.60;67.30;;;;;;5010570;28;20033;-86
2022/06/11 10:34:34;;;;;;;14.98;2.53;;;22.80;67.10;;;;;;5036512;28;20033;-86
2022/06/11 10:36:59;;;;;;;14.38;2.13;;;22.90;66.20;;;;;;5021649;28;20128;-83
2022/06/11 10:39:45;;;;;;;13.48;2.60;;;23.00;65.80;;;;;;5013539;28;20108;-83
2022/06/11 10:42:46;;;;;;;9.52;1.40;;;23.20;66.60;;;;;;4996409;28;20105;-85
2022/06/11 10:45:16;;;;;;;10.52;2.22;;;23.30;65.60;;;;;;4995022;28;20022;-87
2022/06/11 10:47:54;;;;;;;10.27;1.90;;;23.60;65.50;;;;;;4984620;28;20030;-86
2022/06/11 10:50:26;;;;;;;9.50;1.88;;;23.80;64.50;;;;;;4996292;28;20101;-86
2022/06/11 10:53:25;;;;;;;7.13;1.52;;;24.10;63.80;;;;;;5000370;28;20023;-85
2022/06/11 10:55:56;;;;;;;12.30;2.08;;;24.40;63.10;;;;;;5002893;28;20022;-84
2022/06/11 10:58:49;;;;;;;11.57;1.90;;;24.50;62.60;;;;;;4995087;28;20037;-84
2022/06/11 11:01:33;;;;;;;10.60;1.90;;;24.70;62.30;;;;;;5012431;28;20172;-85
2022/06/11 11:04:25;;;;;;;10.88;1.77;;;24.90;61.20;;;;;;4995222;28;20081;-83
2022/06/11 11:07:19;;;;;;;12.63;2.50;;;25.20;61.80;;;;;;4996336;28;20019;-85
2022/06/11 11:09:46;;;;;;;7.35;1.75;;;25.90;60.70;;;;;;4995015;28;20470;-84
2022/06/11 11:12:26;;;;;;;10.32;2.38;;;26.50;60.80;;;;;;4996435;28;20386;-85
2022/06/11 11:15:17;;;;;;;12.20;1.88;;;27.10;58.20;;;;;;4994911;28;20023;-83
2022/06/11 11:17:51;;;;;;;12.23;2.25;;;27.20;56.70;;;;;;4994986;28;20038;-83
2022/06/11 11:20:33;;;;;;;10.30;1.95;;;27.50;56.10;;;;;;4994198;28;20028;-82
2022/06/11 11:23:14;;;;;;;11.75;2.38;;;27.80;55.30;;;;;;4996023;28;20379;-83
2022/06/11 11:25:45;;;;;;;10.77;2.40;;;28.20;54.50;;;;;;4994935;28;20022;-85
2022/06/11 11:28:38;;;;;;;11.00;2.55;;;28.50;53.30;;;;;;4994624;28;20037;-82
2022/06/11 11:31:07;;;;;;;9.20;1.70;;;28.80;52.60;;;;;;5002825;28;20022;-83
2022/06/11 11:33:38;;;;;;;9.25;2.08;;;29.30;52.70;;;;;;5007839;28;20382;-83
2022/06/11 11:36:17;;;;;;;12.15;2.20;;;29.60;52.30;;;;;;5015084;28;20052;-85
2022/06/11 11:38:43;;;;;;;10.50;1.92;;;30.10;51.10;;;;;;5013826;28;20025;-83
2022/06/11 11:41:23;;;;;;;9.82;1.80;;;30.50;50.30;;;;;;5014349;28;20030;-80
2022/06/11 11:43:51;;;;;;;7.75;1.85;;;30.80;49.10;;;;;;5014863;28;20540;-84
2022/06/11 11:46:23;;;;;;;8.25;2.10;;;30.80;49.40;;;;;;5014816;28;20382;-81
2022/06/11 11:48:57;;;;;;;8.60;1.52;;;30.50;47.50;;;;;;5013629;28;20026;-75
2022/06/11 11:51:37;;;;;;;9.52;2.15;;;30.40;47.90;;;;;;5014631;28;20022;-77
2022/06/11 11:54:22;;;;;;;10.75;2.05;;;30.40;47.80;;;;;;5012801;28;20104;-76
2022/06/11 11:56:55;;;;;;;8.80;2.15;;;30.30;46.40;;;;;;5014258;28;20026;-75
2022/06/11 11:59:53;;;;;;;11.45;2.30;;;30.00;47.00;;;;;;5013273;28;20029;-76
2022/06/11 12:02:35;;;;;;;8.55;2.00;;;29.70;47.60;;;;;;4994961;28;20046;-75
2022/06/11 12:05:10;;;;;;;12.57;2.10;;;29.70;48.30;;;;;;4995021;28;20026;-76
2022/06/11 12:07:43;;;;;;;6.65;1.38;;;29.80;48.40;;;;;;4995132;28;20022;-75
2022/06/11 12:10:18;;;;;;;9.88;2.08;;;29.90;48.50;;;;;;4993509;28;20081;-77
2022/06/11 12:12:50;;;;;;;11.38;1.90;;;30.00;48.40;;;;;;4993558;28;20018;-76
2022/06/11 12:15:18;;;;;;;7.40;1.30;;;30.10;48.20;;;;;;5009485;28;20033;-75
2022/06/11 12:18:10;;;;;;;9.75;1.80;;;30.00;48.10;;;;;;5014727;28;20077;-75
2022/06/11 12:20:45;;;;;;;6.18;1.70;;;30.00;48.00;;;;;;5008694;28;20022;-76
2022/06/11 12:23:16;;;;;;;7.35;1.48;;;30.10;48.00;;;;;;4994627;28;20037;-76
2022/06/11 12:25:51;;;;;;;7.97;1.48;;;30.10;47.90;;;;;;5009847;28;20463;-75
2022/06/11 12:28:24;;;;;;;8.85;1.73;;;30.10;48.00;;;;;;4999234;28;20109;-76
2022/06/11 12:30:50;;;;;;;6.90;1.13;;;29.90;48.20;;;;;;5012870;28;20109;-82
2022/06/11 12:33:18;;;;;;;9.98;2.13;;;30.00;48.40;;;;;;4996532;28;20121;-82
2022/06/11 12:36:23;;;;;;;7.80;1.55;;;30.10;48.20;;;;;;5013106;28;20033;-84
2022/06/11 12:39:04;;;;;;;8.38;1.52;;;30.30;48.10;;;;;;5007312;28;20127;-81
2022/06/11 12:41:32;;;;;;;6.80;1.52;;;30.40;48.30;;;;;;5012870;28;20092;-81
2022/06/11 12:44:22;;;;;;;11.20;1.48;;;30.50;48.20;;;;;;5014167;28;20456;-81
2022/06/11 12:47:03;;;;;;;9.70;1.92;;;30.50;47.80;;;;;;5012863;28;20367;-81
2022/06/11 12:49:36;;;;;;;8.85;1.80;;;30.30;47.80;;;;;;5012442;28;20026;-80
2022/06/11 12:52:36;;;;;;;6.90;1.52;;;30.10;48.10;;;;;;5013938;28;20486;-83
2022/06/11 12:55:24;;;;;;;12.15;1.85;;;30.00;48.20;;;;;;5010915;28;20038;-83
2022/06/11 12:58:05;;;;;;;11.02;2.08;;;29.80;48.20;;;;;;5013791;28;20436;-80
2022/06/11 13:01:12;;;;;;;7.60;1.33;;;29.50;48.80;;;;;;5010842;28;20028;-80
2022/06/11 13:04:00;;;;;;;6.95;1.67;;;29.40;48.60;;;;;;4994176;28;20513;-81
2022/06/11 13:06:45;;;;;;;10.00;1.80;;;29.30;48.80;;;;;;5005061;28;20113;-80
2022/06/11 13:09:29;;;;;;;9.65;1.23;;;29.20;49.10;;;;;;5013718;28;20068;-82